PWSweather.com
Personal Weather Stations
Station Observations
KV9EWX
Winnebago, Il, Winnebago, IL 61088

Winnebago, IlWinnebago, IL 61088

Lat: 42.261175, Lon: -89.236369

Elevation: 892

Station Type: Lacrosse ws-2811

Latest ConditionsUpdated 9:28:45 PM CDT Tuesday, Jul 7, 2015
Currently Today's Max Today's Min Today's Average
Temperature 57.2°F14.0°C 72.0°F22.2°C 57.2°F14.0°C 64.4°F18.0°C
Dew Point 50.2°F10.1°C 65.0°F18.3°C 50.2°F10.1°C 57.0°F13.9°C
Winds Calm Calm 10.3 mph NNE16.6 kmh NNE - 4.2 mph 6.8 kmh
Wind Gusts 0.7 mph1.1 kmh 18.4 mph29.6 kmh - -
Humidity 77% 92% 57% 78%
Pressure 29.67 in1004.7 mb 29.67 in1004.7 mb 29.43 in996.6 mb -
Precipitation - 0.09 in2.3 mm - -
Hour Temp Dew Point Humidity Winds Wind Gusts Pressure Precip Precip Rate Daily Precip Total
09:28 PM 57.2°F14.0°C 50.2°F10.1°C 77% Calm Calm 0.7 mph1.1 kmh 29.67 in1004.7 mb 0.00 in0.0 mm 0.00 in0.0 mm 0.09 in2.3 mm
09:23 PM 57.4°F14.1°C 50.3°F10.2°C 77% 0.3 mph NE0.5 kmh NE 1.2 mph1.9 kmh 29.67 in1004.7 mb 0.00 in0.0 mm 0.00 in0.0 mm 0.09 in2.3 mm
09:18 PM 57.8°F14.3°C 50.4°F10.2°C 76% 0.7 mph 1.1 kmh 1.2 mph1.9 kmh 29.67 in1004.7 mb 0.00 in0.0 mm 0.00 in0.0 mm 0.09 in2.3 mm
09:13 PM 58.1°F14.5°C 50.7°F10.4°C 76% Calm Calm 1.9 mph3.1 kmh 29.66 in1004.4 mb 0.00 in0.0 mm 0.00 in0.0 mm 0.09 in2.3 mm
09:08 PM 58.3°F14.6°C 50.9°F10.5°C 76% 0.6 mph 1.0 kmh 1.9 mph3.1 kmh 29.66 in1004.4 mb 0.00 in0.0 mm 0.00 in0.0 mm 0.09 in2.3 mm
09:03 PM 58.7°F14.8°C 50.9°F10.5°C 75% 0.4 mph N0.6 kmh N 3.1 mph5.0 kmh 29.66 in1004.4 mb 0.00 in0.0 mm 0.00 in0.0 mm 0.09 in2.3 mm
08:58 PM 59.0°F15.0°C 51.2°F10.7°C 75% 1.2 mph N1.9 kmh N 3.5 mph5.6 kmh 29.66 in1004.4 mb 0.00 in0.0 mm 0.00 in0.0 mm 0.09 in2.3 mm
08:53 PM 59.4°F15.2°C 51.2°F10.7°C 74% 1.2 mph 1.9 kmh 3.5 mph5.6 kmh 29.66 in1004.4 mb 0.00 in0.0 mm 0.00 in0.0 mm 0.09 in2.3 mm
08:48 PM 59.8°F15.4°C 51.6°F10.9°C 74% 0.4 mph NE0.6 kmh NE 2.3 mph3.7 kmh 29.66 in1004.4 mb 0.00 in0.0 mm 0.00 in0.0 mm 0.09 in2.3 mm
08:43 PM 60.0°F15.6°C 51.5°F10.8°C 73% 0.8 mph N1.3 kmh N 2.3 mph3.7 kmh 29.65 in1004.1 mb 0.00 in0.0 mm 0.00 in0.0 mm 0.09 in2.3 mm
08:38 PM 60.4°F15.8°C 51.9°F11.1°C 73% 0.3 mph ENE0.5 kmh ENE 1.9 mph3.1 kmh 29.65 in1004.1 mb 0.00 in0.0 mm 0.00 in0.0 mm 0.09 in2.3 mm
08:33 PM 60.7°F15.9°C 51.8°F11.0°C 72% 0.6 mph NNE1.0 kmh NNE 1.6 mph2.6 kmh 29.65 in1004.1 mb 0.00 in0.0 mm 0.00 in0.0 mm 0.09 in2.3 mm
08:28 PM 61.1°F16.2°C 52.5°F11.4°C 73% 0.9 mph 1.4 kmh 4.4 mph7.1 kmh 29.65 in1004.1 mb 0.00 in0.0 mm 0.00 in0.0 mm 0.09 in2.3 mm
08:23 PM 61.5°F16.4°C 52.5°F11.4°C 72% 1.0 mph N1.6 kmh N 4.4 mph7.1 kmh 29.65 in1004.1 mb 0.00 in0.0 mm 0.00 in0.0 mm 0.09 in2.3 mm
08:18 PM 61.8°F16.6°C 52.4°F11.3°C 71% 0.7 mph N1.1 kmh N 4.4 mph7.1 kmh 29.65 in1004.1 mb 0.00 in0.0 mm 0.00 in0.0 mm 0.09 in2.3 mm
08:13 PM 62.2°F16.8°C 52.8°F11.6°C 71% 1.2 mph N1.9 kmh N 4.4 mph7.1 kmh 29.65 in1004.1 mb 0.00 in0.0 mm 0.00 in0.0 mm 0.09 in2.3 mm
08:08 PM 62.4°F16.9°C 52.6°F11.4°C 70% 1.7 mph N2.7 kmh N 6.0 mph9.7 kmh 29.65 in1004.1 mb 0.00 in0.0 mm 0.00 in0.0 mm 0.09 in2.3 mm
08:03 PM 62.5°F16.9°C 52.7°F11.5°C 70% 3.4 mph N5.5 kmh N 6.0 mph9.7 kmh 29.65 in1004.1 mb 0.00 in0.0 mm 0.00 in0.0 mm 0.09 in2.3 mm
07:58 PM 62.9°F17.2°C 53.1°F11.7°C 70% 1.6 mph N2.6 kmh N 6.0 mph9.7 kmh 29.65 in1004.1 mb 0.00 in0.0 mm 0.00 in0.0 mm 0.09 in2.3 mm
07:53 PM 63.2°F17.3°C 53.1°F11.7°C 69% 1.6 mph N2.6 kmh N 8.2 mph13.2 kmh 29.65 in1004.1 mb 0.00 in0.0 mm 0.00 in0.0 mm 0.09 in2.3 mm
07:48 PM 63.5°F17.5°C 53.3°F11.8°C 69% 3.6 mph N5.8 kmh N 8.2 mph13.2 kmh 29.65 in1004.1 mb 0.00 in0.0 mm 0.00 in0.0 mm 0.09 in2.3 mm
07:43 PM 63.9°F17.7°C 53.3°F11.8°C 68% 1.5 mph N2.4 kmh N 6.7 mph10.8 kmh 29.64 in1003.7 mb 0.00 in0.0 mm 0.00 in0.0 mm 0.09 in2.3 mm
07:38 PM 64.2°F17.9°C 53.6°F12.0°C 68% 2.0 mph N3.2 kmh N 6.7 mph10.8 kmh 29.65 in1004.1 mb 0.00 in0.0 mm 0.00 in0.0 mm 0.09 in2.3 mm
07:33 PM 64.4°F18.0°C 53.4°F11.9°C 67% 2.3 mph N3.7 kmh N 9.4 mph15.1 kmh 29.65 in1004.1 mb 0.00 in0.0 mm 0.00 in0.0 mm 0.09 in2.3 mm
07:28 PM 64.8°F18.2°C 53.7°F12.1°C 67% 3.8 mph NNE6.1 kmh NNE 9.4 mph15.1 kmh 29.65 in1004.1 mb 0.00 in0.0 mm 0.00 in0.0 mm 0.09 in2.3 mm
07:23 PM 65.0°F18.3°C 53.9°F12.2°C 67% 4.0 mph N6.4 kmh N 8.2 mph13.2 kmh 29.65 in1004.1 mb 0.00 in0.0 mm 0.00 in0.0 mm 0.09 in2.3 mm
07:18 PM 65.3°F18.5°C 54.2°F12.3°C 67% 2.0 mph 3.2 kmh 9.8 mph15.8 kmh 29.65 in1004.1 mb 0.00 in0.0 mm 0.00 in0.0 mm 0.09 in2.3 mm
07:13 PM 65.3°F18.5°C 54.2°F12.3°C 67% 4.4 mph N7.1 kmh N 9.8 mph15.8 kmh 29.65 in1004.1 mb 0.00 in0.0 mm 0.00 in0.0 mm 0.09 in2.3 mm
07:08 PM 65.7°F18.7°C 54.2°F12.3°C 66% 2.8 mph N4.5 kmh N 8.2 mph13.2 kmh 29.65 in1004.1 mb 0.00 in0.0 mm 0.00 in0.0 mm 0.09 in2.3 mm
07:03 PM 65.9°F18.8°C 54.4°F12.4°C 66% 1.3 mph N2.1 kmh N 8.2 mph13.2 kmh 29.64 in1003.7 mb 0.00 in0.0 mm 0.00 in0.0 mm 0.09 in2.3 mm
06:58 PM 66.0°F18.9°C 54.0°F12.2°C 65% 3.0 mph N4.8 kmh N 8.2 mph13.2 kmh 29.64 in1003.7 mb 0.00 in0.0 mm 0.00 in0.0 mm 0.09 in2.3 mm
06:53 PM 66.2°F19.0°C 54.2°F12.3°C 65% 5.2 mph 8.4 kmh 9.4 mph15.1 kmh 29.64 in1003.7 mb 0.00 in0.0 mm 0.00 in0.0 mm 0.09 in2.3 mm
06:48 PM 66.5°F19.2°C 54.6°F12.6°C 65% 3.9 mph N6.3 kmh N 9.4 mph15.1 kmh 29.64 in1003.7 mb 0.00 in0.0 mm 0.00 in0.0 mm 0.09 in2.3 mm
06:43 PM 66.7°F19.3°C 54.8°F12.7°C 65% 1.5 mph N2.4 kmh N 5.4 mph8.7 kmh 29.64 in1003.7 mb 0.00 in0.0 mm 0.00 in0.0 mm 0.09 in2.3 mm
06:38 PM 66.8°F19.3°C 54.4°F12.4°C 64% 1.3 mph NNW2.1 kmh NNW 6.0 mph9.7 kmh 29.64 in1003.7 mb 0.00 in0.0 mm 0.00 in0.0 mm 0.09 in2.3 mm
06:33 PM 67.2°F19.6°C 54.4°F12.4°C 63% 2.8 mph NNW4.5 kmh NNW 7.0 mph11.3 kmh 29.64 in1003.7 mb 0.00 in0.0 mm 0.00 in0.0 mm 0.09 in2.3 mm
06:27 PM 67.4°F19.7°C 54.6°F12.6°C 63% 2.3 mph N3.7 kmh N 9.4 mph15.1 kmh 29.64 in1003.7 mb 0.00 in0.0 mm 0.00 in0.0 mm 0.09 in2.3 mm
06:22 PM 67.6°F19.8°C 54.3°F12.4°C 62% 4.6 mph N7.4 kmh N 9.4 mph15.1 kmh 29.64 in1003.7 mb 0.00 in0.0 mm 0.00 in0.0 mm 0.09 in2.3 mm
06:17 PM 67.9°F19.9°C 54.6°F12.6°C 62% 3.6 mph NE5.8 kmh NE 8.6 mph13.8 kmh 29.64 in1003.7 mb 0.00 in0.0 mm 0.00 in0.0 mm 0.09 in2.3 mm
06:12 PM 68.3°F20.2°C 54.9°F12.7°C 62% 2.9 mph NNE4.7 kmh NNE 9.8 mph15.8 kmh 29.64 in1003.7 mb 0.00 in0.0 mm 0.00 in0.0 mm 0.09 in2.3 mm
06:07 PM 68.8°F20.4°C 55.0°F12.8°C 61% 4.2 mph NNE6.8 kmh NNE 13.3 mph21.4 kmh 29.64 in1003.7 mb 0.00 in0.0 mm 0.00 in0.0 mm 0.09 in2.3 mm
06:02 PM 69.2°F20.7°C 55.3°F12.9°C 61% 6.2 mph N10.0 kmh N 13.3 mph21.4 kmh 29.64 in1003.7 mb 0.00 in0.0 mm 0.00 in0.0 mm 0.09 in2.3 mm
05:57 PM 70.0°F21.1°C 55.7°F13.2°C 60% 4.2 mph ENE6.8 kmh ENE 13.3 mph21.4 kmh 29.64 in1003.7 mb 0.00 in0.0 mm 0.00 in0.0 mm 0.09 in2.3 mm
05:52 PM 70.5°F21.4°C 56.6°F13.7°C 61% 3.2 mph N5.1 kmh N 11.7 mph18.8 kmh 29.64 in1003.7 mb 0.00 in0.0 mm 0.00 in0.0 mm 0.09 in2.3 mm
05:47 PM 70.2°F21.2°C 56.3°F13.5°C 61% 2.5 mph N4.0 kmh N 9.4 mph15.1 kmh 29.64 in1003.7 mb 0.00 in0.0 mm 0.00 in0.0 mm 0.09 in2.3 mm
05:42 PM 69.4°F20.8°C 56.0°F13.3°C 62% 2.5 mph N4.0 kmh N 7.9 mph12.7 kmh 29.64 in1003.7 mb 0.00 in0.0 mm 0.00 in0.0 mm 0.09 in2.3 mm
05:37 PM 69.0°F20.6°C 55.6°F13.1°C 62% 0.5 mph NW0.8 kmh NW 7.5 mph12.1 kmh 29.64 in1003.7 mb 0.00 in0.0 mm 0.00 in0.0 mm 0.09 in2.3 mm
05:32 PM 69.2°F20.7°C 55.3°F12.9°C 61% 2.2 mph N3.5 kmh N 7.5 mph12.1 kmh 29.64 in1003.7 mb 0.00 in0.0 mm 0.00 in0.0 mm 0.09 in2.3 mm
05:27 PM 69.4°F20.8°C 55.5°F13.1°C 61% 2.4 mph N3.9 kmh N 12.9 mph20.8 kmh 29.64 in1003.7 mb 0.00 in0.0 mm 0.00 in0.0 mm 0.09 in2.3 mm
05:22 PM 69.5°F20.8°C 55.6°F13.1°C 61% 3.2 mph N5.1 kmh N 12.9 mph20.8 kmh 29.64 in1003.7 mb 0.00 in0.0 mm 0.00 in0.0 mm 0.09 in2.3 mm
05:17 PM 69.6°F20.9°C 55.3°F12.9°C 60% 1.8 mph N2.9 kmh N 13.3 mph21.4 kmh 29.64 in1003.7 mb 0.00 in0.0 mm 0.00 in0.0 mm 0.09 in2.3 mm
05:12 PM 70.3°F21.3°C 55.0°F12.8°C 58% 5.4 mph NNE8.7 kmh NNE 15.2 mph24.5 kmh 29.64 in1003.7 mb 0.00 in0.0 mm 0.00 in0.0 mm 0.09 in2.3 mm
05:07 PM 71.2°F21.8°C 55.8°F13.2°C 58% 5.7 mph NNE9.2 kmh NNE 15.2 mph24.5 kmh 29.64 in1003.7 mb 0.00 in0.0 mm 0.00 in0.0 mm 0.09 in2.3 mm
05:02 PM 72.0°F22.2°C 56.1°F13.4°C 57% 8.0 mph NNE12.9 kmh NNE 16.4 mph26.4 kmh 29.64 in1003.7 mb 0.00 in0.0 mm 0.00 in0.0 mm 0.09 in2.3 mm
04:57 PM 71.4°F21.9°C 55.5°F13.1°C 57% 5.8 mph N9.3 kmh N 16.4 mph26.4 kmh 29.64 in1003.7 mb 0.00 in0.0 mm 0.00 in0.0 mm 0.09 in2.3 mm
04:52 PM 71.2°F21.8°C 56.3°F13.5°C 59% 5.4 mph NNE8.7 kmh NNE 10.2 mph16.4 kmh 29.64 in1003.7 mb 0.00 in0.0 mm 0.00 in0.0 mm 0.09 in2.3 mm
04:47 PM 70.3°F21.3°C 56.4°F13.6°C 61% 2.5 mph 4.0 kmh 10.2 mph16.4 kmh 29.64 in1003.7 mb 0.00 in0.0 mm 0.00 in0.0 mm 0.09 in2.3 mm
04:42 PM 70.2°F21.2°C 55.4°F13.0°C 59% 4.0 mph N6.4 kmh N 9.8 mph15.8 kmh 29.64 in1003.7 mb 0.00 in0.0 mm 0.00 in0.0 mm 0.09 in2.3 mm
04:37 PM 70.7°F21.5°C 55.9°F13.3°C 59% 5.7 mph NE9.2 kmh NE 11.0 mph17.7 kmh 29.64 in1003.7 mb 0.00 in0.0 mm 0.00 in0.0 mm 0.09 in2.3 mm
04:32 PM 70.3°F21.3°C 56.9°F13.8°C 62% 2.3 mph ENE3.7 kmh ENE 11.0 mph17.7 kmh 29.64 in1003.7 mb 0.00 in0.0 mm 0.00 in0.0 mm 0.09 in2.3 mm
04:27 PM 70.2°F21.2°C 55.9°F13.3°C 60% 6.4 mph NE10.3 kmh NE 9.8 mph15.8 kmh 29.64 in1003.7 mb 0.00 in0.0 mm 0.00 in0.0 mm 0.09 in2.3 mm
04:22 PM 70.2°F21.2°C 56.3°F13.5°C 61% 2.6 mph N4.2 kmh N 7.9 mph12.7 kmh 29.64 in1003.7 mb 0.00 in0.0 mm 0.00 in0.0 mm 0.09 in2.3 mm
04:17 PM 70.3°F21.3°C 55.5°F13.1°C 59% 4.8 mph N7.7 kmh N 11.7 mph18.8 kmh 29.63 in1003.4 mb 0.00 in0.0 mm 0.00 in0.0 mm 0.09 in2.3 mm
04:12 PM 70.9°F21.6°C 56.0°F13.3°C 59% 4.6 mph NNE7.4 kmh NNE 11.7 mph18.8 kmh 29.63 in1003.4 mb 0.00 in0.0 mm 0.00 in0.0 mm 0.09 in2.3 mm
04:07 PM 70.9°F21.6°C 57.9°F14.4°C 63% 6.8 mph NE10.9 kmh NE 11.0 mph17.7 kmh 29.63 in1003.4 mb 0.00 in0.0 mm 0.00 in0.0 mm 0.09 in2.3 mm
04:02 PM 70.3°F21.3°C 57.3°F14.1°C 63% 2.6 mph ENE4.2 kmh ENE 11.0 mph17.7 kmh 29.63 in1003.4 mb 0.00 in0.0 mm 0.00 in0.0 mm 0.09 in2.3 mm
03:57 PM 70.2°F21.2°C 56.8°F13.8°C 62% 2.5 mph N4.0 kmh N 11.0 mph17.7 kmh 29.63 in1003.4 mb 0.00 in0.0 mm 0.00 in0.0 mm 0.09 in2.3 mm
03:52 PM 70.2°F21.2°C 56.3°F13.5°C 61% 5.1 mph N8.2 kmh N 8.2 mph13.2 kmh 29.63 in1003.4 mb 0.00 in0.0 mm 0.00 in0.0 mm 0.09 in2.3 mm
03:47 PM 70.3°F21.3°C 56.9°F13.8°C 62% 2.5 mph NNW4.0 kmh NNW 14.2 mph22.9 kmh 29.63 in1003.4 mb 0.00 in0.0 mm 0.00 in0.0 mm 0.09 in2.3 mm
03:42 PM 71.1°F21.7°C 56.7°F13.7°C 60% 7.4 mph N11.9 kmh N 14.2 mph22.9 kmh 29.63 in1003.4 mb 0.00 in0.0 mm 0.00 in0.0 mm 0.09 in2.3 mm
03:37 PM 72.0°F22.2°C 57.5°F14.2°C 60% 8.6 mph N13.8 kmh N 13.7 mph22.0 kmh 29.63 in1003.4 mb 0.00 in0.0 mm 0.00 in0.0 mm 0.09 in2.3 mm
03:32 PM 71.2°F21.8°C 57.7°F14.3°C 62% 6.7 mph NNW10.8 kmh NNW 12.6 mph20.3 kmh 29.62 in1003.0 mb 0.00 in0.0 mm 0.00 in0.0 mm 0.09 in2.3 mm
03:27 PM 69.8°F21.0°C 57.3°F14.1°C 64% 0.5 mph N0.8 kmh N 11.4 mph18.3 kmh 29.62 in1003.0 mb 0.00 in0.0 mm 0.00 in0.0 mm 0.09 in2.3 mm
03:22 PM 69.2°F20.7°C 56.2°F13.4°C 63% 3.6 mph N5.8 kmh N 14.5 mph23.3 kmh 29.62 in1003.0 mb 0.00 in0.0 mm 0.00 in0.0 mm 0.09 in2.3 mm
03:17 PM 69.4°F20.8°C 55.5°F13.1°C 61% 6.7 mph N10.8 kmh N 14.5 mph23.3 kmh 29.62 in1003.0 mb 0.00 in0.0 mm 0.00 in0.0 mm 0.09 in2.3 mm
03:12 PM 70.0°F21.1°C 56.1°F13.4°C 61% 4.2 mph NE6.8 kmh NE 8.9 mph14.3 kmh 29.62 in1003.0 mb 0.00 in0.0 mm 0.00 in0.0 mm 0.09 in2.3 mm
03:07 PM 70.7°F21.5°C 57.7°F14.3°C 63% 3.2 mph NNE5.1 kmh NNE 13.3 mph21.4 kmh 29.62 in1003.0 mb 0.00 in0.0 mm 0.00 in0.0 mm 0.09 in2.3 mm
03:02 PM 70.7°F21.5°C 57.7°F14.3°C 63% 3.8 mph N6.1 kmh N 13.3 mph21.4 kmh 29.62 in1003.0 mb 0.00 in0.0 mm 0.00 in0.0 mm 0.09 in2.3 mm
02:57 PM 70.3°F21.3°C 57.3°F14.1°C 63% 4.2 mph ENE6.8 kmh ENE 9.8 mph15.8 kmh 29.62 in1003.0 mb 0.00 in0.0 mm 0.00 in0.0 mm 0.09 in2.3 mm
02:52 PM 70.2°F21.2°C 57.2°F14.0°C 63% 4.5 mph NNE7.2 kmh NNE 9.4 mph15.1 kmh 29.62 in1003.0 mb 0.00 in0.0 mm 0.00 in0.0 mm 0.09 in2.3 mm
02:47 PM 70.2°F21.2°C 57.2°F14.0°C 63% 5.7 mph N9.2 kmh N 11.0 mph17.7 kmh 29.62 in1003.0 mb 0.00 in0.0 mm 0.00 in0.0 mm 0.09 in2.3 mm
02:42 PM 70.5°F21.4°C 57.1°F13.9°C 62% 4.2 mph N6.8 kmh N 11.4 mph18.3 kmh 29.62 in1003.0 mb 0.00 in0.0 mm 0.00 in0.0 mm 0.09 in2.3 mm
02:37 PM 70.2°F21.2°C 56.8°F13.8°C 62% 5.1 mph N8.2 kmh N 11.7 mph18.8 kmh 29.62 in1003.0 mb 0.00 in0.0 mm 0.00 in0.0 mm 0.09 in2.3 mm
02:32 PM 70.2°F21.2°C 56.3°F13.5°C 61% 4.9 mph N7.9 kmh N 11.7 mph18.8 kmh 29.62 in1003.0 mb 0.00 in0.0 mm 0.00 in0.0 mm 0.09 in2.3 mm
02:27 PM 70.9°F21.6°C 57.0°F13.9°C 61% 6.2 mph 10.0 kmh 11.7 mph18.8 kmh 29.62 in1003.0 mb 0.00 in0.0 mm 0.00 in0.0 mm 0.09 in2.3 mm
02:22 PM 71.2°F21.8°C 56.8°F13.8°C 60% 5.9 mph N9.5 kmh N 16.1 mph25.9 kmh 29.62 in1003.0 mb 0.00 in0.0 mm 0.00 in0.0 mm 0.09 in2.3 mm
02:17 PM 71.6°F22.0°C 57.6°F14.2°C 61% 9.0 mph NE14.5 kmh NE 16.1 mph25.9 kmh 29.62 in1003.0 mb 0.00 in0.0 mm 0.00 in0.0 mm 0.09 in2.3 mm
02:12 PM 70.7°F21.5°C 59.0°F15.0°C 66% 3.2 mph N5.1 kmh N 11.0 mph17.7 kmh 29.62 in1003.0 mb 0.00 in0.0 mm 0.00 in0.0 mm 0.09 in2.3 mm
02:07 PM 69.6°F20.9°C 57.5°F14.2°C 65% 6.1 mph N9.8 kmh N 14.9 mph24.0 kmh 29.61 in1002.7 mb 0.00 in0.0 mm 0.00 in0.0 mm 0.09 in2.3 mm
02:02 PM 69.4°F20.8°C 56.8°F13.8°C 64% 6.9 mph N11.1 kmh N 14.9 mph24.0 kmh 29.61 in1002.7 mb 0.00 in0.0 mm 0.00 in0.0 mm 0.09 in2.3 mm
01:57 PM 69.8°F21.0°C 57.3°F14.1°C 64% 4.9 mph NNE7.9 kmh NNE 11.4 mph18.3 kmh 29.62 in1003.0 mb 0.00 in0.0 mm 0.00 in0.0 mm 0.09 in2.3 mm
01:52 PM 69.8°F21.0°C 58.2°F14.6°C 66% 4.7 mph N7.6 kmh N 12.1 mph19.5 kmh 29.62 in1003.0 mb 0.00 in0.0 mm 0.00 in0.0 mm 0.09 in2.3 mm
01:47 PM 69.5°F20.8°C 57.4°F14.1°C 65% 7.3 mph NE11.7 kmh NE 16.8 mph27.0 kmh 29.62 in1003.0 mb 0.00 in0.0 mm 0.00 in0.0 mm 0.09 in2.3 mm
01:42 PM 69.8°F21.0°C 57.3°F14.1°C 64% 10.3 mph NNE16.6 kmh NNE 16.8 mph27.0 kmh 29.62 in1003.0 mb 0.00 in0.0 mm 0.00 in0.0 mm 0.09 in2.3 mm
01:37 PM 69.5°F20.8°C 57.8°F14.3°C 66% 2.6 mph N4.2 kmh N 14.9 mph24.0 kmh 29.62 in1003.0 mb 0.00 in0.0 mm 0.00 in0.0 mm 0.09 in2.3 mm
01:32 PM 69.6°F20.9°C 57.1°F13.9°C 64% 5.5 mph NNE8.9 kmh NNE 11.0 mph17.7 kmh 29.62 in1003.0 mb 0.00 in0.0 mm 0.00 in0.0 mm 0.09 in2.3 mm
01:27 PM 70.2°F21.2°C 58.1°F14.5°C 65% 6.0 mph N9.7 kmh N 13.3 mph21.4 kmh 29.62 in1003.0 mb 0.00 in0.0 mm 0.00 in0.0 mm 0.09 in2.3 mm
01:22 PM 70.5°F21.4°C 58.8°F14.9°C 66% 8.2 mph NW13.2 kmh NW 13.3 mph21.4 kmh 29.61 in1002.7 mb 0.00 in0.0 mm 0.00 in0.0 mm 0.09 in2.3 mm
01:17 PM 70.2°F21.2°C 59.8°F15.4°C 69% 5.7 mph NW9.2 kmh NW 11.0 mph17.7 kmh 29.61 in1002.7 mb 0.00 in0.0 mm 0.00 in0.0 mm 0.09 in2.3 mm
01:12 PM 69.4°F20.8°C 58.1°F14.5°C 67% 8.1 mph NNE13.0 kmh NNE 17.1 mph27.5 kmh 29.62 in1003.0 mb 0.00 in0.0 mm 0.00 in0.0 mm 0.09 in2.3 mm
01:07 PM 68.8°F20.4°C 57.6°F14.2°C 67% 4.9 mph NE7.9 kmh NE 17.1 mph27.5 kmh 29.62 in1003.0 mb 0.00 in0.0 mm 0.00 in0.0 mm 0.09 in2.3 mm
01:02 PM 68.5°F20.3°C 56.9°F13.8°C 66% 6.4 mph N10.3 kmh N 16.4 mph26.4 kmh 29.61 in1002.7 mb 0.00 in0.0 mm 0.00 in0.0 mm 0.09 in2.3 mm
12:57 PM 68.8°F20.4°C 56.7°F13.7°C 65% 9.1 mph NE14.6 kmh NE 16.4 mph26.4 kmh 29.61 in1002.7 mb 0.00 in0.0 mm 0.00 in0.0 mm 0.09 in2.3 mm
12:52 PM 69.2°F20.7°C 57.5°F14.2°C 66% 9.7 mph NNE15.6 kmh NNE 14.5 mph23.3 kmh 29.61 in1002.7 mb 0.00 in0.0 mm 0.00 in0.0 mm 0.09 in2.3 mm
12:47 PM 68.8°F20.4°C 58.4°F14.7°C 69% 4.6 mph NNE7.4 kmh NNE 12.6 mph20.3 kmh 29.61 in1002.7 mb 0.00 in0.0 mm 0.00 in0.0 mm 0.09 in2.3 mm
12:42 PM 68.3°F20.2°C 57.5°F14.2°C 68% 4.9 mph N7.9 kmh N 17.1 mph27.5 kmh 29.61 in1002.7 mb 0.00 in0.0 mm 0.00 in0.0 mm 0.09 in2.3 mm
12:37 PM 67.9°F19.9°C 57.9°F14.4°C 70% 4.7 mph NW7.6 kmh NW 17.1 mph27.5 kmh 29.61 in1002.7 mb 0.00 in0.0 mm 0.00 in0.0 mm 0.09 in2.3 mm
12:32 PM 67.4°F19.7°C 57.1°F13.9°C 69% 5.3 mph N8.5 kmh N 13.7 mph22.0 kmh 29.61 in1002.7 mb 0.00 in0.0 mm 0.00 in0.0 mm 0.09 in2.3 mm
12:27 PM 67.4°F19.7°C 57.1°F13.9°C 69% 4.8 mph N7.7 kmh N 12.1 mph19.5 kmh 29.61 in1002.7 mb 0.00 in0.0 mm 0.00 in0.0 mm 0.09 in2.3 mm
12:22 PM 67.9°F19.9°C 57.9°F14.4°C 70% 6.2 mph N10.0 kmh N 13.3 mph21.4 kmh 29.61 in1002.7 mb 0.00 in0.0 mm 0.00 in0.0 mm 0.09 in2.3 mm
12:17 PM 68.5°F20.3°C 59.3°F15.2°C 72% 4.7 mph N7.6 kmh N 13.3 mph21.4 kmh 29.61 in1002.7 mb 0.00 in0.0 mm 0.00 in0.0 mm 0.09 in2.3 mm
12:12 PM 68.5°F20.3°C 60.0°F15.6°C 74% 2.4 mph E3.9 kmh E 11.7 mph18.8 kmh 29.61 in1002.7 mb 0.00 in0.0 mm 0.00 in0.0 mm 0.09 in2.3 mm
12:07 PM 68.3°F20.2°C 58.7°F14.8°C 71% 6.4 mph N10.3 kmh N 11.4 mph18.3 kmh 29.61 in1002.7 mb 0.00 in0.0 mm 0.00 in0.0 mm 0.09 in2.3 mm
12:02 PM 68.5°F20.3°C 58.9°F14.9°C 71% 5.3 mph N8.5 kmh N 10.2 mph16.4 kmh 29.61 in1002.7 mb 0.00 in0.0 mm 0.00 in0.0 mm 0.09 in2.3 mm
11:57 AM 68.8°F20.4°C 59.9°F15.5°C 73% 2.9 mph N4.7 kmh N 8.6 mph13.8 kmh 29.61 in1002.7 mb 0.00 in0.0 mm 0.00 in0.0 mm 0.09 in2.3 mm
11:52 AM 69.2°F20.7°C 60.7°F15.9°C 74% 2.4 mph NNW3.9 kmh NNW 8.6 mph13.8 kmh 29.61 in1002.7 mb 0.00 in0.0 mm 0.00 in0.0 mm 0.09 in2.3 mm
11:47 AM 69.5°F20.8°C 61.3°F16.3°C 75% 1.5 mph W2.4 kmh W 14.9 mph24.0 kmh 29.61 in1002.7 mb 0.00 in0.0 mm 0.00 in0.0 mm 0.09 in2.3 mm
11:42 AM 68.5°F20.3°C 60.7°F15.9°C 76% 3.7 mph N6.0 kmh N 15.2 mph24.5 kmh 29.61 in1002.7 mb 0.00 in0.0 mm 0.00 in0.0 mm 0.09 in2.3 mm
11:37 AM 67.7°F19.8°C 59.3°F15.2°C 74% 8.0 mph NE12.9 kmh NE 15.2 mph24.5 kmh 29.61 in1002.7 mb 0.00 in0.0 mm 0.00 in0.0 mm 0.09 in2.3 mm
11:32 AM 68.1°F20.1°C 59.6°F15.3°C 74% 8.2 mph NNE13.2 kmh NNE 13.3 mph21.4 kmh 29.61 in1002.7 mb 0.00 in0.0 mm 0.00 in0.0 mm 0.09 in2.3 mm
11:27 AM 68.6°F20.3°C 60.8°F16.0°C 76% 2.5 mph ENE4.0 kmh ENE 6.0 mph9.7 kmh 29.61 in1002.7 mb 0.00 in0.0 mm 0.00 in0.0 mm 0.09 in2.3 mm
11:22 AM 68.5°F20.3°C 61.1°F16.2°C 77% 1.6 mph E2.6 kmh E 6.3 mph10.1 kmh 29.60 in1002.4 mb 0.00 in0.0 mm 0.00 in0.0 mm 0.09 in2.3 mm
11:17 AM 67.4°F19.7°C 59.7°F15.4°C 76% 2.9 mph NNE4.7 kmh NNE 6.3 mph10.1 kmh 29.60 in1002.4 mb 0.00 in0.0 mm 0.00 in0.0 mm 0.09 in2.3 mm
11:12 AM 67.4°F19.7°C 59.7°F15.4°C 76% 1.9 mph N3.1 kmh N 3.9 mph6.3 kmh 29.60 in1002.4 mb 0.00 in0.0 mm 0.00 in0.0 mm 0.09 in2.3 mm
11:07 AM 67.9°F19.9°C 59.8°F15.4°C 75% 1.9 mph SE3.1 kmh SE 8.9 mph14.3 kmh 29.60 in1002.4 mb 0.00 in0.0 mm 0.00 in0.0 mm 0.09 in2.3 mm
11:01 AM 68.3°F20.2°C 60.2°F15.7°C 75% 2.7 mph ENE4.3 kmh ENE 11.0 mph17.7 kmh 29.59 in1002.0 mb 0.00 in0.0 mm 0.00 in0.0 mm 0.09 in2.3 mm
10:57 AM 67.6°F19.8°C 59.5°F15.3°C 75% 6.6 mph NE10.6 kmh NE 11.0 mph17.7 kmh 29.59 in1002.0 mb 0.00 in0.0 mm 0.00 in0.0 mm 0.09 in2.3 mm
10:52 AM 67.0°F19.4°C 59.3°F15.2°C 76% 4.8 mph N7.7 kmh N 9.8 mph15.8 kmh 29.59 in1002.0 mb 0.00 in0.0 mm 0.00 in0.0 mm 0.09 in2.3 mm
10:46 AM 66.7°F19.3°C 58.3°F14.6°C 74% 2.1 mph NNE3.4 kmh NNE 9.8 mph15.8 kmh 29.59 in1002.0 mb 0.00 in0.0 mm 0.00 in0.0 mm 0.09 in2.3 mm
10:41 AM 67.0°F19.4°C 58.6°F14.8°C 74% 5.1 mph N8.2 kmh N 14.2 mph22.9 kmh 29.59 in1002.0 mb 0.00 in0.0 mm 0.00 in0.0 mm 0.09 in2.3 mm
10:37 AM 67.6°F19.8°C 58.8°F14.9°C 73% 8.1 mph N13.0 kmh N 14.2 mph22.9 kmh 29.59 in1002.0 mb 0.00 in0.0 mm 0.00 in0.0 mm 0.09 in2.3 mm
10:31 AM 67.7°F19.8°C 59.3°F15.2°C 74% 5.0 mph N8.0 kmh N 10.2 mph16.4 kmh 29.59 in1002.0 mb 0.00 in0.0 mm 0.00 in0.0 mm 0.09 in2.3 mm
10:26 AM 67.9°F19.9°C 59.4°F15.2°C 74% 4.5 mph N7.2 kmh N 9.8 mph15.8 kmh 29.59 in1002.0 mb 0.00 in0.0 mm 0.00 in0.0 mm 0.09 in2.3 mm
10:21 AM 68.1°F20.1°C 59.6°F15.3°C 74% 3.6 mph N5.8 kmh N 12.1 mph19.5 kmh 29.59 in1002.0 mb 0.00 in0.0 mm 0.00 in0.0 mm 0.09 in2.3 mm
10:16 AM 68.5°F20.3°C 60.0°F15.6°C 74% 6.6 mph N10.6 kmh N 12.1 mph19.5 kmh 29.59 in1002.0 mb 0.00 in0.0 mm 0.00 in0.0 mm 0.09 in2.3 mm
10:11 AM 68.6°F20.3°C 60.1°F15.6°C 74% 5.1 mph ENE8.2 kmh ENE 17.7 mph28.5 kmh 29.59 in1002.0 mb 0.00 in0.0 mm 0.00 in0.0 mm 0.09 in2.3 mm
10:06 AM 68.8°F20.4°C 60.3°F15.7°C 74% 6.0 mph N9.7 kmh N 17.7 mph28.5 kmh 29.58 in1001.7 mb 0.00 in0.0 mm 0.00 in0.0 mm 0.09 in2.3 mm
10:01 AM 68.8°F20.4°C 60.7°F15.9°C 75% 7.9 mph NNE12.7 kmh NNE 12.6 mph20.3 kmh 29.58 in1001.7 mb 0.00 in0.0 mm 0.00 in0.0 mm 0.09 in2.3 mm
09:56 AM 68.3°F20.2°C 60.6°F15.9°C 76% 7.3 mph NE11.7 kmh NE 12.9 mph20.8 kmh 29.59 in1002.0 mb 0.00 in0.0 mm 0.00 in0.0 mm 0.09 in2.3 mm
09:51 AM 67.6°F19.8°C 60.6°F15.9°C 78% 4.6 mph NNE7.4 kmh NNE 12.9 mph20.8 kmh 29.59 in1002.0 mb 0.00 in0.0 mm 0.00 in0.0 mm 0.09 in2.3 mm
09:46 AM 67.4°F19.7°C 60.4°F15.8°C 78% 4.4 mph N7.1 kmh N 10.2 mph16.4 kmh 29.59 in1002.0 mb 0.00 in0.0 mm 0.00 in0.0 mm 0.09 in2.3 mm
09:41 AM 67.9°F19.9°C 61.2°F16.2°C 79% 2.8 mph N4.5 kmh N 11.0 mph17.7 kmh 29.59 in1002.0 mb 0.00 in0.0 mm 0.00 in0.0 mm 0.09 in2.3 mm
09:36 AM 67.4°F19.7°C 61.1°F16.2°C 80% 4.5 mph N7.2 kmh N 11.0 mph17.7 kmh 29.58 in1001.7 mb 0.00 in0.0 mm 0.00 in0.0 mm 0.09 in2.3 mm
09:31 AM 66.3°F19.1°C 60.7°F15.9°C 82% 4.0 mph NE6.4 kmh NE 9.8 mph15.8 kmh 29.58 in1001.7 mb 0.00 in0.0 mm 0.00 in0.0 mm 0.09 in2.3 mm
09:26 AM 65.3°F18.5°C 60.0°F15.6°C 83% 5.1 mph NE8.2 kmh NE 9.8 mph15.8 kmh 29.58 in1001.7 mb 0.00 in0.0 mm 0.00 in0.0 mm 0.09 in2.3 mm
09:21 AM 65.0°F18.3°C 60.1°F15.6°C 84% 4.6 mph NE7.4 kmh NE 8.6 mph13.8 kmh 29.58 in1001.7 mb 0.00 in0.0 mm 0.00 in0.0 mm 0.09 in2.3 mm
09:16 AM 64.6°F18.1°C 60.0°F15.6°C 85% 3.4 mph N5.5 kmh N 11.0 mph17.7 kmh 29.58 in1001.7 mb 0.00 in0.0 mm 0.00 in0.0 mm 0.09 in2.3 mm
09:11 AM 64.1°F17.8°C 59.8°F15.4°C 86% 5.8 mph NNE9.3 kmh NNE 11.0 mph17.7 kmh 29.58 in1001.7 mb 0.00 in0.0 mm 0.00 in0.0 mm 0.09 in2.3 mm
09:06 AM 63.7°F17.6°C 60.1°F15.6°C 88% 6.4 mph NE10.3 kmh NE 12.1 mph19.5 kmh 29.58 in1001.7 mb 0.00 in0.0 mm 0.00 in0.0 mm 0.09 in2.3 mm
09:01 AM 61.8°F16.6°C 58.2°F14.6°C 88% 4.1 mph NNE6.6 kmh NNE 12.1 mph19.5 kmh 29.58 in1001.7 mb 0.00 in0.0 mm 0.00 in0.0 mm 0.09 in2.3 mm
08:56 AM 60.7°F15.9°C 57.4°F14.1°C 89% 3.0 mph 4.8 kmh 8.6 mph13.8 kmh 29.58 in1001.7 mb 0.00 in0.0 mm 0.00 in0.0 mm 0.09 in2.3 mm
08:51 AM 60.4°F15.8°C 57.2°F14.0°C 89% 3.2 mph NNE5.1 kmh NNE 8.6 mph13.8 kmh 29.58 in1001.7 mb 0.00 in0.0 mm 0.00 in0.0 mm 0.09 in2.3 mm
08:46 AM 60.2°F15.7°C 57.3°F14.1°C 90% 2.0 mph NNW3.2 kmh NNW 7.5 mph12.1 kmh 29.58 in1001.7 mb 0.00 in0.0 mm 0.00 in0.0 mm 0.09 in2.3 mm
08:41 AM 59.8°F15.4°C 56.9°F13.8°C 90% 4.4 mph NNE7.1 kmh NNE 10.5 mph16.9 kmh 29.58 in1001.7 mb 0.00 in0.0 mm 0.00 in0.0 mm 0.09 in2.3 mm
08:36 AM 59.4°F15.2°C 56.4°F13.6°C 90% 3.5 mph NE5.6 kmh NE 10.5 mph16.9 kmh 29.58 in1001.7 mb 0.00 in0.0 mm 0.00 in0.0 mm 0.09 in2.3 mm
08:31 AM 59.0°F15.0°C 56.0°F13.3°C 90% 5.3 mph NNE8.5 kmh NNE 9.4 mph15.1 kmh 29.58 in1001.7 mb 0.00 in0.0 mm 0.00 in0.0 mm 0.09 in2.3 mm
08:26 AM 58.9°F14.9°C 55.9°F13.3°C 90% 5.3 mph NE8.5 kmh NE 11.7 mph18.8 kmh 29.57 in1001.4 mb 0.00 in0.0 mm 0.00 in0.0 mm 0.09 in2.3 mm
08:21 AM 58.7°F14.8°C 55.7°F13.2°C 90% 5.0 mph NNE8.0 kmh NNE 12.1 mph19.5 kmh 29.57 in1001.4 mb 0.00 in0.0 mm 0.00 in0.0 mm 0.09 in2.3 mm
08:16 AM 58.7°F14.8°C 55.7°F13.2°C 90% 3.8 mph NE6.1 kmh NE 12.1 mph19.5 kmh 29.57 in1001.4 mb 0.00 in0.0 mm 0.00 in0.0 mm 0.09 in2.3 mm
08:11 AM 58.5°F14.7°C 55.5°F13.1°C 90% 4.3 mph NNE6.9 kmh NNE 9.4 mph15.1 kmh 29.57 in1001.4 mb 0.00 in0.0 mm 0.00 in0.0 mm 0.09 in2.3 mm
08:06 AM 58.5°F14.7°C 55.5°F13.1°C 90% 3.3 mph NNE5.3 kmh NNE 13.3 mph21.4 kmh 29.57 in1001.4 mb 0.00 in0.0 mm 0.00 in0.0 mm 0.09 in2.3 mm
08:01 AM 58.5°F14.7°C 55.5°F13.1°C 90% 4.6 mph NE7.4 kmh NE 13.3 mph21.4 kmh 29.56 in1001.0 mb 0.00 in0.0 mm 0.00 in0.0 mm 0.09 in2.3 mm
07:56 AM 58.7°F14.8°C 55.7°F13.2°C 90% 1.9 mph NNE3.1 kmh NNE 6.0 mph9.7 kmh 29.57 in1001.4 mb 0.00 in0.0 mm 0.00 in0.0 mm 0.09 in2.3 mm
07:51 AM 58.5°F14.7°C 55.5°F13.1°C 90% 3.1 mph NE5.0 kmh NE 8.2 mph13.2 kmh 29.56 in1001.0 mb 0.00 in0.0 mm 0.00 in0.0 mm 0.09 in2.3 mm
07:46 AM 58.7°F14.8°C 55.7°F13.2°C 90% 5.3 mph NE8.5 kmh NE 9.8 mph15.8 kmh 29.56 in1001.0 mb 0.00 in0.0 mm 0.00 in0.0 mm 0.09 in2.3 mm
07:41 AM 58.7°F14.8°C 55.7°F13.2°C 90% 2.9 mph NNE4.7 kmh NNE 11.0 mph17.7 kmh 29.56 in1001.0 mb 0.00 in0.0 mm 0.00 in0.0 mm 0.09 in2.3 mm
07:36 AM 58.5°F14.7°C 55.5°F13.1°C 90% 2.2 mph N3.5 kmh N 12.9 mph20.8 kmh 29.56 in1001.0 mb 0.00 in0.0 mm 0.00 in0.0 mm 0.09 in2.3 mm
07:31 AM 58.5°F14.7°C 55.5°F13.1°C 90% 4.9 mph NE7.9 kmh NE 13.7 mph22.0 kmh 29.56 in1001.0 mb 0.00 in0.0 mm 0.00 in0.0 mm 0.09 in2.3 mm
07:26 AM 58.5°F14.7°C 55.5°F13.1°C 90% 7.6 mph N12.2 kmh N 16.4 mph26.4 kmh 29.55 in1000.7 mb 0.00 in0.0 mm 0.00 in0.0 mm 0.09 in2.3 mm
07:21 AM 58.5°F14.7°C 55.5°F13.1°C 90% 5.2 mph NNE8.4 kmh NNE 16.4 mph26.4 kmh 29.55 in1000.7 mb 0.00 in0.0 mm 0.00 in0.0 mm 0.09 in2.3 mm
07:16 AM 58.5°F14.7°C 55.5°F13.1°C 90% 5.3 mph N8.5 kmh N 15.2 mph24.5 kmh 29.55 in1000.7 mb 0.00 in0.0 mm 0.00 in0.0 mm 0.09 in2.3 mm
07:11 AM 58.5°F14.7°C 55.5°F13.1°C 90% 9.0 mph NNE14.5 kmh NNE 15.2 mph24.5 kmh 29.55 in1000.7 mb 0.00 in0.0 mm 0.00 in0.0 mm 0.09 in2.3 mm
07:06 AM 58.3°F14.6°C 55.3°F12.9°C 90% 6.6 mph NE10.6 kmh NE 15.2 mph24.5 kmh 29.55 in1000.7 mb 0.00 in0.0 mm 0.00 in0.0 mm 0.09 in2.3 mm
07:01 AM 58.5°F14.7°C 55.5°F13.1°C 90% 8.3 mph NE13.4 kmh NE 13.3 mph21.4 kmh 29.55 in1000.7 mb 0.00 in0.0 mm 0.00 in0.0 mm 0.09 in2.3 mm
06:56 AM 58.5°F14.7°C 55.8°F13.2°C 91% 6.4 mph NNE10.3 kmh NNE 14.2 mph22.9 kmh 29.55 in1000.7 mb 0.00 in0.0 mm 0.00 in0.0 mm 0.09 in2.3 mm
06:51 AM 58.3°F14.6°C 55.6°F13.1°C 91% 4.8 mph NE7.7 kmh NE 14.9 mph24.0 kmh 29.54 in1000.3 mb 0.00 in0.0 mm 0.00 in0.0 mm 0.09 in2.3 mm
06:46 AM 58.3°F14.6°C 55.6°F13.1°C 91% 7.9 mph NNE12.7 kmh NNE 14.9 mph24.0 kmh 29.54 in1000.3 mb 0.00 in0.0 mm 0.00 in0.0 mm 0.09 in2.3 mm
06:41 AM 58.3°F14.6°C 55.6°F13.1°C 91% 4.9 mph NE7.9 kmh NE 12.1 mph19.5 kmh 29.54 in1000.3 mb 0.00 in0.0 mm 0.00 in0.0 mm 0.09 in2.3 mm
06:36 AM 58.3°F14.6°C 55.6°F13.1°C 91% 3.4 mph N5.5 kmh N 9.4 mph15.1 kmh 29.54 in1000.3 mb 0.00 in0.0 mm 0.00 in0.0 mm 0.09 in2.3 mm
06:31 AM 58.3°F14.6°C 55.6°F13.1°C 91% 4.9 mph NNE7.9 kmh NNE 10.2 mph16.4 kmh 29.54 in1000.3 mb 0.00 in0.0 mm 0.00 in0.0 mm 0.09 in2.3 mm
06:26 AM 58.3°F14.6°C 55.6°F13.1°C 91% 3.5 mph 5.6 kmh 10.2 mph16.4 kmh 29.54 in1000.3 mb 0.00 in0.0 mm 0.00 in0.0 mm 0.09 in2.3 mm
06:21 AM 58.3°F14.6°C 55.6°F13.1°C 91% 3.0 mph N4.8 kmh N 8.2 mph13.2 kmh 29.54 in1000.3 mb 0.00 in0.0 mm 0.00 in0.0 mm 0.09 in2.3 mm
06:16 AM 58.3°F14.6°C 55.6°F13.1°C 91% 3.7 mph NE6.0 kmh NE 11.0 mph17.7 kmh 29.53 in1000.0 mb 0.00 in0.0 mm 0.00 in0.0 mm 0.09 in2.3 mm
06:11 AM 58.3°F14.6°C 55.6°F13.1°C 91% 5.8 mph N9.3 kmh N 13.3 mph21.4 kmh 29.53 in1000.0 mb 0.00 in0.0 mm 0.00 in0.0 mm 0.09 in2.3 mm
06:06 AM 58.3°F14.6°C 55.6°F13.1°C 91% 4.3 mph NE6.9 kmh NE 13.3 mph21.4 kmh 29.53 in1000.0 mb 0.00 in0.0 mm 0.00 in0.0 mm 0.09 in2.3 mm
06:01 AM 58.3°F14.6°C 55.6°F13.1°C 91% 4.0 mph NNE6.4 kmh NNE 11.4 mph18.3 kmh 29.53 in1000.0 mb 0.00 in0.0 mm 0.00 in0.0 mm 0.09 in2.3 mm
05:56 AM 58.3°F14.6°C 55.6°F13.1°C 91% 5.1 mph N8.2 kmh N 11.4 mph18.3 kmh 29.53 in1000.0 mb 0.00 in0.0 mm 0.00 in0.0 mm 0.09 in2.3 mm
05:51 AM 58.3°F14.6°C 55.6°F13.1°C 91% 5.7 mph N9.2 kmh N 11.4 mph18.3 kmh 29.52 in999.7 mb 0.00 in0.0 mm 0.00 in0.0 mm 0.09 in2.3 mm
05:46 AM 58.3°F14.6°C 55.6°F13.1°C 91% 5.1 mph N8.2 kmh N 11.4 mph18.3 kmh 29.52 in999.7 mb 0.00 in0.0 mm 0.00 in0.0 mm 0.09 in2.3 mm
05:41 AM 58.3°F14.6°C 55.6°F13.1°C 91% 4.9 mph N7.9 kmh N 11.4 mph18.3 kmh 29.52 in999.7 mb 0.00 in0.0 mm 0.00 in0.0 mm 0.09 in2.3 mm
05:36 AM 58.3°F14.6°C 55.6°F13.1°C 91% 6.8 mph N10.9 kmh N 13.3 mph21.4 kmh 29.52 in999.7 mb 0.00 in0.0 mm 0.00 in0.0 mm 0.09 in2.3 mm
05:31 AM 58.3°F14.6°C 55.6°F13.1°C 91% 4.5 mph NNE7.2 kmh NNE 13.3 mph21.4 kmh 29.52 in999.7 mb 0.00 in0.0 mm 0.00 in0.0 mm 0.09 in2.3 mm
05:26 AM 58.3°F14.6°C 55.6°F13.1°C 91% 4.9 mph NNE7.9 kmh NNE 12.6 mph20.3 kmh 29.52 in999.7 mb 0.00 in0.0 mm 0.00 in0.0 mm 0.09 in2.3 mm
05:21 AM 58.3°F14.6°C 55.6°F13.1°C 91% 5.9 mph N9.5 kmh N 13.3 mph21.4 kmh 29.51 in999.3 mb 0.00 in0.0 mm 0.00 in0.0 mm 0.09 in2.3 mm
05:16 AM 58.3°F14.6°C 55.6°F13.1°C 91% 7.4 mph N11.9 kmh N 14.5 mph23.3 kmh 29.51 in999.3 mb 0.02 in0.5 mm 0.00 in0.0 mm 0.09 in2.3 mm
05:11 AM 58.3°F14.6°C 55.6°F13.1°C 91% 4.0 mph NNE6.4 kmh NNE 14.5 mph23.3 kmh 29.51 in999.3 mb 0.02 in0.5 mm 0.00 in0.0 mm 0.09 in2.3 mm
05:06 AM 58.3°F14.6°C 55.6°F13.1°C 91% 3.9 mph NNE6.3 kmh NNE 14.2 mph22.9 kmh 29.50 in999.0 mb 0.02 in0.5 mm 0.00 in0.0 mm 0.09 in2.3 mm
05:01 AM 58.3°F14.6°C 55.6°F13.1°C 91% 3.1 mph N5.0 kmh N 16.8 mph27.0 kmh 29.50 in999.0 mb 0.02 in0.5 mm 0.00 in0.0 mm 0.09 in2.3 mm
04:56 AM 58.3°F14.6°C 55.6°F13.1°C 91% 5.6 mph NNE9.0 kmh NNE 16.8 mph27.0 kmh 29.50 in999.0 mb 0.02 in0.5 mm 0.00 in0.0 mm 0.09 in2.3 mm
04:51 AM 58.3°F14.6°C 55.9°F13.3°C 92% 4.9 mph NNE7.9 kmh NNE 14.9 mph24.0 kmh 29.49 in998.6 mb 0.02 in0.5 mm 0.00 in0.0 mm 0.09 in2.3 mm
04:46 AM 58.3°F14.6°C 55.9°F13.3°C 92% 5.6 mph N9.0 kmh N 14.9 mph24.0 kmh 29.49 in998.6 mb 0.02 in0.5 mm 0.00 in0.0 mm 0.09 in2.3 mm
04:41 AM 58.3°F14.6°C 55.9°F13.3°C 92% 5.2 mph N8.4 kmh N 14.2 mph22.9 kmh 29.49 in998.6 mb 0.02 in0.5 mm 0.00 in0.0 mm 0.09 in2.3 mm
04:36 AM 58.3°F14.6°C 55.9°F13.3°C 92% 5.0 mph N8.0 kmh N 15.6 mph25.1 kmh 29.49 in998.6 mb 0.02 in0.5 mm 0.00 in0.0 mm 0.09 in2.3 mm
04:31 AM 58.3°F14.6°C 55.9°F13.3°C 92% 4.9 mph NNE7.9 kmh NNE 18.4 mph29.6 kmh 29.49 in998.6 mb 0.02 in0.5 mm 0.00 in0.0 mm 0.09 in2.3 mm
04:26 AM 58.5°F14.7°C 56.1°F13.4°C 92% 8.1 mph NNE13.0 kmh NNE 18.4 mph29.6 kmh 29.49 in998.6 mb 0.02 in0.5 mm 0.00 in0.0 mm 0.09 in2.3 mm
04:21 AM 58.5°F14.7°C 56.1°F13.4°C 92% 6.2 mph N10.0 kmh N 15.6 mph25.1 kmh 29.49 in998.6 mb 0.02 in0.5 mm 0.24 in6.1 mm 0.09 in2.3 mm
04:16 AM 58.5°F14.7°C 56.1°F13.4°C 92% 5.2 mph N8.4 kmh N 17.7 mph28.5 kmh 29.49 in998.6 mb 0.00 in0.0 mm 0.00 in0.0 mm 0.07 in1.8 mm
04:11 AM 58.7°F14.8°C 56.3°F13.5°C 92% 5.2 mph NNE8.4 kmh NNE 17.7 mph28.5 kmh 29.49 in998.6 mb 0.00 in0.0 mm 0.00 in0.0 mm 0.07 in1.8 mm
04:06 AM 58.7°F14.8°C 56.3°F13.5°C 92% 5.8 mph N9.3 kmh N 16.8 mph27.0 kmh 29.48 in998.3 mb 0.00 in0.0 mm 0.00 in0.0 mm 0.07 in1.8 mm
04:01 AM 58.7°F14.8°C 56.3°F13.5°C 92% 7.3 mph N11.7 kmh N 16.8 mph27.0 kmh 29.48 in998.3 mb 0.00 in0.0 mm 0.00 in0.0 mm 0.07 in1.8 mm
03:56 AM 58.9°F14.9°C 56.5°F13.6°C 92% 5.2 mph N8.4 kmh N 16.8 mph27.0 kmh 29.48 in998.3 mb 0.00 in0.0 mm 0.00 in0.0 mm 0.07 in1.8 mm
03:51 AM 59.0°F15.0°C 56.6°F13.7°C 92% 5.4 mph N8.7 kmh N 16.8 mph27.0 kmh 29.48 in998.3 mb 0.00 in0.0 mm 0.00 in0.0 mm 0.07 in1.8 mm
03:46 AM 59.0°F15.0°C 56.6°F13.7°C 92% 3.6 mph NNW5.8 kmh NNW 14.5 mph23.3 kmh 29.48 in998.3 mb 0.00 in0.0 mm 0.00 in0.0 mm 0.07 in1.8 mm
03:41 AM 59.0°F15.0°C 56.6°F13.7°C 92% 4.0 mph N6.4 kmh N 14.5 mph23.3 kmh 29.48 in998.3 mb 0.00 in0.0 mm 0.00 in0.0 mm 0.07 in1.8 mm
03:36 AM 59.2°F15.1°C 56.8°F13.8°C 92% 2.4 mph N3.9 kmh N 13.3 mph21.4 kmh 29.47 in998.0 mb 0.00 in0.0 mm 0.00 in0.0 mm 0.07 in1.8 mm
03:31 AM 59.4°F15.2°C 57.0°F13.9°C 92% 3.0 mph N4.8 kmh N 13.3 mph21.4 kmh 29.47 in998.0 mb 0.00 in0.0 mm 0.00 in0.0 mm 0.07 in1.8 mm
03:25 AM 59.4°F15.2°C 57.0°F13.9°C 92% 2.3 mph NW3.7 kmh NW 12.6 mph20.3 kmh 29.47 in998.0 mb 0.00 in0.0 mm 0.00 in0.0 mm 0.07 in1.8 mm
03:20 AM 59.4°F15.2°C 57.0°F13.9°C 92% 3.2 mph NNE5.1 kmh NNE 11.0 mph17.7 kmh 29.47 in998.0 mb 0.00 in0.0 mm 0.00 in0.0 mm 0.07 in1.8 mm
03:16 AM 59.6°F15.3°C 57.2°F14.0°C 92% 3.9 mph NW6.3 kmh NW 11.0 mph17.7 kmh 29.47 in998.0 mb 0.00 in0.0 mm 0.00 in0.0 mm 0.07 in1.8 mm
03:10 AM 59.6°F15.3°C 57.2°F14.0°C 92% 3.2 mph N5.1 kmh N 12.1 mph19.5 kmh 29.47 in998.0 mb 0.00 in0.0 mm 0.00 in0.0 mm 0.07 in1.8 mm
03:05 AM 59.8°F15.4°C 57.4°F14.1°C 92% 3.7 mph N6.0 kmh N 15.2 mph24.5 kmh 29.47 in998.0 mb 0.00 in0.0 mm 0.00 in0.0 mm 0.07 in1.8 mm
03:00 AM 59.8°F15.4°C 57.4°F14.1°C 92% 4.9 mph N7.9 kmh N 15.2 mph24.5 kmh 29.46 in997.6 mb 0.00 in0.0 mm 0.00 in0.0 mm 0.07 in1.8 mm
02:55 AM 59.8°F15.4°C 57.4°F14.1°C 92% 6.8 mph NNE10.9 kmh NNE 12.9 mph20.8 kmh 29.46 in997.6 mb 0.00 in0.0 mm 0.00 in0.0 mm 0.07 in1.8 mm
02:50 AM 59.8°F15.4°C 57.5°F14.2°C 92% 4.3 mph N6.9 kmh N 10.5 mph16.9 kmh 29.46 in997.6 mb 0.00 in0.0 mm 0.00 in0.0 mm 0.07 in1.8 mm
02:45 AM 59.8°F15.4°C 57.2°F14.0°C 91% 5.3 mph N8.5 kmh N 11.7 mph18.8 kmh 29.46 in997.6 mb 0.00 in0.0 mm 0.00 in0.0 mm 0.07 in1.8 mm
02:40 AM 60.0°F15.6°C 57.4°F14.1°C 91% 5.9 mph N9.5 kmh N 12.9 mph20.8 kmh 29.46 in997.6 mb 0.00 in0.0 mm 0.00 in0.0 mm 0.07 in1.8 mm
02:35 AM 60.0°F15.6°C 57.4°F14.1°C 91% 4.1 mph N6.6 kmh N 12.9 mph20.8 kmh 29.45 in997.3 mb 0.00 in0.0 mm 0.00 in0.0 mm 0.07 in1.8 mm
02:30 AM 60.2°F15.7°C 57.6°F14.2°C 91% 4.7 mph NNW7.6 kmh NNW 13.7 mph22.0 kmh 29.45 in997.3 mb 0.00 in0.0 mm 0.00 in0.0 mm 0.07 in1.8 mm
02:25 AM 60.4°F15.8°C 57.8°F14.3°C 91% 5.7 mph NNW9.2 kmh NNW 13.7 mph22.0 kmh 29.45 in997.3 mb 0.00 in0.0 mm 0.00 in0.0 mm 0.07 in1.8 mm
02:20 AM 60.4°F15.8°C 57.8°F14.3°C 91% 6.4 mph NNE10.3 kmh NNE 12.9 mph20.8 kmh 29.45 in997.3 mb 0.00 in0.0 mm 0.00 in0.0 mm 0.07 in1.8 mm
02:15 AM 60.6°F15.9°C 58.0°F14.4°C 91% 3.7 mph NNE6.0 kmh NNE 12.1 mph19.5 kmh 29.45 in997.3 mb 0.00 in0.0 mm 0.00 in0.0 mm 0.07 in1.8 mm
02:10 AM 60.7°F15.9°C 58.0°F14.4°C 91% 4.6 mph N7.4 kmh N 7.9 mph12.7 kmh 29.45 in997.3 mb 0.00 in0.0 mm 0.00 in0.0 mm 0.07 in1.8 mm
02:05 AM 60.9°F16.1°C 58.2°F14.6°C 91% 2.3 mph NW3.7 kmh NW 11.0 mph17.7 kmh 29.45 in997.3 mb 0.00 in0.0 mm 0.00 in0.0 mm 0.07 in1.8 mm
02:00 AM 61.1°F16.2°C 58.4°F14.7°C 91% 4.6 mph N7.4 kmh N 14.9 mph24.0 kmh 29.45 in997.3 mb 0.00 in0.0 mm 0.00 in0.0 mm 0.07 in1.8 mm
01:55 AM 61.3°F16.3°C 58.6°F14.8°C 91% 4.7 mph WNW7.6 kmh WNW 14.9 mph24.0 kmh 29.45 in997.3 mb 0.00 in0.0 mm 0.00 in0.0 mm 0.07 in1.8 mm
01:50 AM 61.5°F16.4°C 58.8°F14.9°C 91% 6.1 mph N9.8 kmh N 15.2 mph24.5 kmh 29.45 in997.3 mb 0.00 in0.0 mm 0.00 in0.0 mm 0.07 in1.8 mm
01:45 AM 61.8°F16.6°C 59.1°F15.1°C 91% 6.1 mph NNW9.8 kmh NNW 15.2 mph24.5 kmh 29.46 in997.6 mb 0.00 in0.0 mm 0.00 in0.0 mm 0.07 in1.8 mm
01:40 AM 62.0°F16.7°C 59.3°F15.2°C 91% 2.6 mph N4.2 kmh N 9.4 mph15.1 kmh 29.46 in997.6 mb 0.00 in0.0 mm 0.00 in0.0 mm 0.07 in1.8 mm
01:35 AM 62.2°F16.8°C 59.5°F15.3°C 91% 3.5 mph NW5.6 kmh NW 7.0 mph11.3 kmh 29.45 in997.3 mb 0.00 in0.0 mm 0.00 in0.0 mm 0.07 in1.8 mm
01:30 AM 62.4°F16.9°C 59.7°F15.4°C 91% 3.2 mph 5.1 kmh 7.0 mph11.3 kmh 29.45 in997.3 mb 0.00 in0.0 mm 0.00 in0.0 mm 0.07 in1.8 mm
01:25 AM 62.5°F16.9°C 59.5°F15.3°C 90% 1.7 mph N2.7 kmh N 7.0 mph11.3 kmh 29.45 in997.3 mb 0.00 in0.0 mm 0.00 in0.0 mm 0.07 in1.8 mm
01:20 AM 62.7°F17.1°C 59.7°F15.4°C 90% 3.3 mph NNW5.3 kmh NNW 7.9 mph12.7 kmh 29.45 in997.3 mb 0.00 in0.0 mm 0.00 in0.0 mm 0.07 in1.8 mm
01:15 AM 62.9°F17.2°C 59.9°F15.5°C 90% 1.3 mph WNW2.1 kmh WNW 7.9 mph12.7 kmh 29.45 in997.3 mb 0.00 in0.0 mm 0.00 in0.0 mm 0.07 in1.8 mm
01:10 AM 63.2°F17.3°C 60.2°F15.7°C 90% 2.0 mph NNW3.2 kmh NNW 6.0 mph9.7 kmh 29.45 in997.3 mb 0.02 in0.5 mm 0.00 in0.0 mm 0.07 in1.8 mm
01:05 AM 63.3°F17.4°C 60.3°F15.7°C 90% 2.3 mph NNW3.7 kmh NNW 6.0 mph9.7 kmh 29.45 in997.3 mb 0.03 in0.8 mm 0.00 in0.0 mm 0.07 in1.8 mm
01:00 AM 63.7°F17.6°C 60.7°F15.9°C 90% 1.9 mph NW3.1 kmh NW 6.0 mph9.7 kmh 29.45 in997.3 mb 0.07 in1.8 mm 0.00 in0.0 mm 0.07 in1.8 mm
12:55 AM 64.1°F17.8°C 61.4°F16.3°C 91% 1.0 mph WNW1.6 kmh WNW 3.9 mph6.3 kmh 29.45 in997.3 mb 0.10 in2.5 mm 0.00 in0.0 mm 0.07 in1.8 mm
12:50 AM 64.4°F18.0°C 61.7°F16.5°C 91% 1.6 mph WNW2.6 kmh WNW 7.0 mph11.3 kmh 29.45 in997.3 mb 0.12 in3.0 mm 0.00 in0.0 mm 0.07 in1.8 mm
12:45 AM 65.0°F18.3°C 62.3°F16.8°C 91% 1.7 mph NNW2.7 kmh NNW 7.0 mph11.3 kmh 29.45 in997.3 mb 0.16 in4.1 mm 0.00 in0.0 mm 0.07 in1.8 mm
12:40 AM 65.3°F18.5°C 62.6°F17.0°C 91% 1.6 mph NNW2.6 kmh NNW 8.2 mph13.2 kmh 29.44 in997.0 mb 0.22 in5.6 mm 0.00 in0.0 mm 0.07 in1.8 mm
12:35 AM 65.9°F18.8°C 63.1°F17.3°C 91% 2.7 mph NW4.3 kmh NW 8.2 mph13.2 kmh 29.44 in997.0 mb 0.22 in5.6 mm 0.00 in0.0 mm 0.07 in1.8 mm
12:30 AM 66.7°F19.3°C 64.0°F17.8°C 91% 2.5 mph N4.0 kmh N 16.8 mph27.0 kmh 29.44 in997.0 mb 0.22 in5.6 mm 0.00 in0.0 mm 0.07 in1.8 mm
12:25 AM 67.4°F19.7°C 64.7°F18.2°C 91% 3.1 mph N5.0 kmh N 16.8 mph27.0 kmh 29.43 in996.6 mb 0.22 in5.6 mm 0.00 in0.0 mm 0.07 in1.8 mm
12:20 AM 67.4°F19.7°C 64.7°F18.2°C 91% 1.4 mph WSW2.3 kmh WSW 4.7 mph7.6 kmh 29.43 in996.6 mb 0.23 in5.8 mm 0.00 in0.0 mm 0.07 in1.8 mm
12:15 AM 67.6°F19.8°C 64.9°F18.3°C 91% 1.3 mph WSW2.1 kmh WSW 6.7 mph10.8 kmh 29.43 in996.6 mb 0.23 in5.8 mm 0.24 in6.1 mm 0.07 in1.8 mm
12:10 AM 67.6°F19.8°C 64.9°F18.3°C 91% 2.5 mph S4.0 kmh S 6.7 mph10.8 kmh 29.43 in996.6 mb 0.21 in5.3 mm 0.24 in6.1 mm 0.04 in1.0 mm
12:05 AM 67.7°F19.8°C 65.0°F18.3°C 91% 1.8 mph WSW2.9 kmh WSW 8.2 mph13.2 kmh 29.43 in996.6 mb 0.19 in4.8 mm 0.24 in6.1 mm 0.02 in0.5 mm
12:00 AM 67.7°F19.8°C 65.0°F18.3°C 91% 3.1 mph SSW5.0 kmh SSW 8.2 mph13.2 kmh 29.43 in996.6 mb 0.17 in4.3 mm 0.00 in0.0 mm 0.17 in4.3 mm